Aktuální počasí v Tlučné 

Teplota 9.9 °C
Minimální teplota 9.8 °C Maximální teplota 11.5 °C
Teplota rosného bodu 5.4 °C Pocitová teplota 9.9 °C
Tlak 1019.4 hPa
Směr a rychlost větru ENE 1.0 m/s
» 1.0 m/s
vlhkost 73.7 %
Teplota 0.0  mm/h
Slunce dnes zítra
↑ 06:22 ↑ 06:23
↓ 19:52 ↓ 19:49
   
Měsíc dnes zítra
↑ 05:12 ↑ 06:17
↓ 19:24 ↓ 19:52
   
  LKLN Metar
  LKLN Metar
2016/08/31 00:00
LKLN 310000Z AUTO 11001KT CAVOK 10/08 Q1026
Rychlost a směr větru 110°
1.9 km/h
--
10 km
32805.1 ft
--
Teplota 10 °C
Rosný bod 8°C
 
Tlak 1026 hPa
769.6 mmHg
 
  YR.no meteogram
  YR.no meteogram
Meteogram YR.no
  IN-Pocasi.cz
  IN-Pocasi.cz
In-Pocasi logo




  PocasiIdnes     CHMI     MeteoPress     Radar     Radar2  


  Valid XHTML 1.0 Transitional  


Provozni a servisni denik

Popis

ČKD / FAQ